FIMP/MRU METAR and TAF weather

Enter ICAO airport designator
Station Type Date Time Source
FIMP METAR 2018/12/12 17:00 UTC NOAA

FIMP 121700Z 10006KT 9999 FEW018 26/22 Q1019


Station Type Date Time Source
FIMP Decoded METAR 2018/12/12 17:00 UTC NOAA

Plaisance Mauritius , Mauritius (FIMP) 20-26S 057-40E 57M
Dec 12, 2018 - 12:00 PM EST / 2018.12.12 1700 UTC
Wind: from the E (100 degrees) at 7 MPH (6 KT):0
Visibility: greater than 7 mile(s):0
Sky conditions: mostly clear
Temperature: 78 F (26 C)
Dew Point: 71 F (22 C)
Relative Humidity: 78%
Pressure (altimeter): 30.09 in. Hg (1019 hPa)
ob: FIMP 121700Z 10006KT 9999 FEW018 26/22 Q1019
cycle: 17

Station Type Date Time Source
FIMP TAF 2018/12/12 18:23 UTC NOAA

TAF FIMP 121715Z 1218/1400 09008KT 9999 SCT018
TEMPO 1222/1302 32005KT PROB30
TEMPO 1309/1315 7000 -SHRA BKN015


Example: see airport list